Time;durP1;ratioP1;P1;durP2;ratioP2;P2;SDS_P1;SDS_P2;PMS_P1;PMS_P2;Temp;Humidity;BMP_temperature;BMP_pressure;BME280_temperature;BME280_humidity;BME280_pressure;Samples;Min_cycle;Max_cycle;Signal;HPM_P1;HPM_P2
2021/10/08 00:01:35;;;;;;;20.17;13.77;;;6.40;99.90;;;;;;5142137;27;20886;-54
2021/10/08 00:04:01;;;;;;;19.37;12.37;;;6.40;99.90;;;;;;5141197;27;20529;-58
2021/10/08 00:06:28;;;;;;;18.70;12.30;;;6.40;99.90;;;;;;5141082;27;20760;-55
2021/10/08 00:08:56;;;;;;;16.17;11.37;;;6.40;99.90;;;;;;5141084;27;20433;-57
2021/10/08 00:11:24;;;;;;;16.63;12.20;;;6.40;99.90;;;;;;5140796;27;20482;-53
2021/10/08 00:13:51;;;;;;;17.00;11.70;;;6.40;99.90;;;;;;5141970;27;20478;-59
2021/10/08 00:16:18;;;;;;;16.40;12.03;;;6.30;99.90;;;;;;5141391;27;20835;-58
2021/10/08 00:18:45;;;;;;;15.50;11.23;;;6.30;99.90;;;;;;5141575;27;20868;-58
2021/10/08 00:21:12;;;;;;;15.70;11.47;;;6.30;99.90;;;;;;5141630;27;20507;-58
2021/10/08 00:23:39;;;;;;;15.97;10.77;;;6.30;99.90;;;;;;5141164;27;20437;-55
2021/10/08 00:26:07;;;;;;;16.80;10.60;;;6.20;99.90;;;;;;5141213;27;20896;-57
2021/10/08 00:28:35;;;;;;;20.23;10.80;;;6.20;99.90;;;;;;5141275;27;20485;-56
2021/10/08 00:31:03;;;;;;;15.10;11.00;;;6.10;99.90;;;;;;5141464;27;20475;-58
2021/10/08 00:33:30;;;;;;;14.53;9.40;;;6.20;99.90;;;;;;5141650;27;20757;-54
2021/10/08 00:35:57;;;;;;;13.33;9.70;;;6.10;99.90;;;;;;5140928;27;20920;-55
2021/10/08 00:38:24;;;;;;;13.47;9.93;;;6.10;99.90;;;;;;5141033;27;20458;-56
2021/10/08 00:40:51;;;;;;;15.73;10.97;;;6.10;99.90;;;;;;5140546;27;20463;-58
2021/10/08 00:43:19;;;;;;;12.30;9.00;;;6.00;99.90;;;;;;5140839;27;20493;-57
2021/10/08 00:45:49;;;;;;;33.43;13.43;;;6.10;99.90;;;;;;5141333;27;20451;-58
2021/10/08 00:48:16;;;;;;;17.83;10.70;;;6.00;99.90;;;;;;5131712;27;20452;-55
2021/10/08 00:50:47;;;;;;;13.63;9.50;;;6.00;99.90;;;;;;5120403;28;20792;-54
2021/10/08 00:53:14;;;;;;;17.37;10.10;;;6.10;99.90;;;;;;5119594;28;20895;-56
2021/10/08 00:55:46;;;;;;;11.67;8.97;;;6.10;99.90;;;;;;5119922;28;20463;-54
2021/10/08 00:58:15;;;;;;;11.70;9.60;;;6.00;99.90;;;;;;5120320;28;20467;-56
2021/10/08 01:00:43;;;;;;;11.00;8.90;;;6.00;99.90;;;;;;5120209;28;20948;-58
2021/10/08 01:03:12;;;;;;;15.17;9.67;;;6.00;99.90;;;;;;5120141;28;20463;-58
2021/10/08 01:05:40;;;;;;;12.27;8.40;;;6.10;99.90;;;;;;5119505;28;20458;-56
2021/10/08 01:08:10;;;;;;;13.23;9.17;;;6.10;99.90;;;;;;5119817;28;20824;-56
2021/10/08 01:10:39;;;;;;;12.07;8.97;;;6.10;99.90;;;;;;5125913;27;20430;-57
2021/10/08 01:13:07;;;;;;;11.63;8.77;;;6.10;99.90;;;;;;5139777;27;20471;-59
2021/10/08 01:15:35;;;;;;;12.47;8.90;;;6.10;99.90;;;;;;5140398;27;20482;-59
2021/10/08 01:18:02;;;;;;;13.17;8.57;;;6.00;99.90;;;;;;5139959;27;20463;-55
2021/10/08 01:20:33;;;;;;;10.83;8.40;;;5.90;99.90;;;;;;5140103;27;20502;-56
2021/10/08 01:23:00;;;;;;;12.97;8.03;;;5.90;99.90;;;;;;5140170;27;20451;-55
2021/10/08 01:25:29;;;;;;;12.73;8.10;;;5.90;99.90;;;;;;5140382;27;20464;-56
2021/10/08 01:28:00;;;;;;;11.77;8.27;;;5.80;99.90;;;;;;5140218;27;20904;-57
2021/10/08 01:30:27;;;;;;;9.80;8.27;;;5.80;99.90;;;;;;5140550;27;20469;-58
2021/10/08 01:32:55;;;;;;;10.63;8.30;;;5.80;99.90;;;;;;5140050;27;20437;-55
2021/10/08 01:35:23;;;;;;;9.43;7.27;;;5.70;99.90;;;;;;5140386;27;20501;-55
2021/10/08 01:37:51;;;;;;;12.40;8.37;;;5.60;99.90;;;;;;5139879;27;20875;-58
2021/10/08 01:40:22;;;;;;;15.60;7.90;;;5.60;99.90;;;;;;5140047;27;20592;-58
2021/10/08 01:42:49;;;;;;;13.43;7.97;;;5.60;99.90;;;;;;5139828;27;20626;-56
2021/10/08 01:45:16;;;;;;;10.40;8.50;;;5.60;99.90;;;;;;5140203;27;20443;-58
2021/10/08 01:47:43;;;;;;;10.63;8.40;;;5.60;99.90;;;;;;5139388;27;20501;-57
2021/10/08 01:50:11;;;;;;;13.30;8.80;;;5.60;99.90;;;;;;5139805;27;20449;-57
2021/10/08 01:52:41;;;;;;;9.60;7.47;;;5.60;99.90;;;;;;5140004;27;20471;-56
2021/10/08 01:55:09;;;;;;;11.40;8.50;;;5.50;99.90;;;;;;5139944;27;20507;-57
2021/10/08 01:57:36;;;;;;;10.17;8.27;;;5.50;99.90;;;;;;5139175;27;20490;-57
2021/10/08 02:00:05;;;;;;;11.67;8.77;;;5.60;99.90;;;;;;5139375;27;21013;-57
2021/10/08 02:02:32;;;;;;;12.30;9.80;;;5.50;99.90;;;;;;5139731;27;20510;-57
2021/10/08 02:04:59;;;;;;;14.37;9.80;;;5.50;99.90;;;;;;5139360;27;20500;-58
2021/10/08 02:07:27;;;;;;;13.37;9.30;;;5.50;99.90;;;;;;5139935;27;20429;-57
2021/10/08 02:09:54;;;;;;;13.03;9.50;;;5.50;99.90;;;;;;5139906;27;20433;-55
2021/10/08 02:12:22;;;;;;;14.33;9.87;;;5.50;99.90;;;;;;5139196;27;20808;-55
2021/10/08 02:14:49;;;;;;;12.43;9.70;;;5.40;99.90;;;;;;5139220;27;20437;-57
2021/10/08 02:17:17;;;;;;;12.57;9.03;;;5.50;99.90;;;;;;5139428;27;20501;-56
2021/10/08 02:19:44;;;;;;;11.73;9.13;;;5.50;99.90;;;;;;5138633;27;20522;-55
2021/10/08 02:22:11;;;;;;;12.80;9.20;;;5.50;99.90;;;;;;5138852;27;20461;-58
2021/10/08 02:24:38;;;;;;;12.20;7.60;;;5.50;99.90;;;;;;5139095;27;20856;-56
2021/10/08 02:27:05;;;;;;;10.30;7.80;;;5.50;99.90;;;;;;5139546;27;20436;-59
2021/10/08 02:29:34;;;;;;;13.50;8.50;;;5.50;99.90;;;;;;5139134;27;20503;-59
2021/10/08 02:32:01;;;;;;;11.43;8.17;;;5.40;99.90;;;;;;5139138;27;20478;-54
2021/10/08 02:34:29;;;;;;;11.40;8.17;;;5.40;99.90;;;;;;5138816;27;20465;-56
2021/10/08 02:36:56;;;;;;;11.27;8.63;;;5.40;99.90;;;;;;5139117;27;20445;-58
2021/10/08 02:39:23;;;;;;;11.00;8.50;;;5.40;99.90;;;;;;5138798;27;20490;-57
2021/10/08 02:41:50;;;;;;;8.90;7.30;;;5.40;99.90;;;;;;5138402;27;20472;-59
2021/10/08 02:44:17;;;;;;;11.13;7.40;;;5.40;99.90;;;;;;5138411;27;20492;-59
2021/10/08 02:46:45;;;;;;;9.67;7.23;;;5.40;99.90;;;;;;5138924;27;20932;-59
2021/10/08 02:49:12;;;;;;;12.33;8.40;;;5.40;99.90;;;;;;5121415;27;20431;-58
2021/10/08 02:51:41;;;;;;;8.47;6.60;;;5.50;99.90;;;;;;5117516;28;20497;-56
2021/10/08 02:54:08;;;;;;;10.10;7.33;;;5.40;99.90;;;;;;5117828;28;20954;-59
2021/10/08 02:56:37;;;;;;;9.50;8.00;;;5.40;99.90;;;;;;5117756;28;20506;-58
2021/10/08 02:59:04;;;;;;;9.27;7.20;;;5.30;99.90;;;;;;5117547;28;20459;-59
2021/10/08 03:01:31;;;;;;;8.30;6.37;;;5.30;99.90;;;;;;5117953;28;20507;-59
2021/10/08 03:04:00;;;;;;;9.93;7.93;;;5.40;99.90;;;;;;5132365;27;20507;-58
2021/10/08 03:06:27;;;;;;;11.63;8.67;;;5.30;99.90;;;;;;5138125;27;20799;-59
2021/10/08 03:08:56;;;;;;;8.23;6.73;;;5.20;99.90;;;;;;5138256;27;20940;-59
2021/10/08 03:11:23;;;;;;;8.70;6.90;;;5.30;99.90;;;;;;5138566;27;20439;-59
2021/10/08 03:13:50;;;;;;;8.23;6.70;;;5.30;99.90;;;;;;5138070;27;20950;-60
2021/10/08 03:16:19;;;;;;;10.20;7.20;;;5.20;99.90;;;;;;5137597;27;20545;-59
2021/10/08 03:18:49;;;;;;;9.03;6.97;;;5.20;99.90;;;;;;5138126;27;20504;-60
2021/10/08 03:21:17;;;;;;;8.63;6.73;;;5.10;99.90;;;;;;5138095;27;20542;-60
2021/10/08 03:23:46;;;;;;;7.23;6.53;;;5.00;99.90;;;;;;5137914;28;20953;-61
2021/10/08 03:26:13;;;;;;;9.80;7.77;;;5.00;99.90;;;;;;5137968;28;20757;-57
2021/10/08 03:28:40;;;;;;;8.93;7.13;;;5.00;99.90;;;;;;5137998;28;20462;-60
2021/10/08 03:31:07;;;;;;;11.00;7.83;;;5.00;99.90;;;;;;5138280;28;20455;-60
2021/10/08 03:33:34;;;;;;;10.20;7.17;;;5.00;99.90;;;;;;5138363;28;20923;-59
2021/10/08 03:36:01;;;;;;;10.30;7.67;;;5.00;99.90;;;;;;5138002;28;20808;-60
2021/10/08 03:38:31;;;;;;;10.07;8.10;;;4.90;99.90;;;;;;5137779;28;20498;-60
2021/10/08 03:41:07;;;;;;;10.43;7.77;;;4.90;99.90;;;;;;5137379;28;20535;-59
2021/10/08 03:43:34;;;;;;;8.97;6.50;;;4.90;99.90;;;;;;5137423;28;20466;-60
2021/10/08 03:46:05;;;;;;;8.87;7.00;;;4.90;99.90;;;;;;5137643;28;20437;-60
2021/10/08 03:48:58;;;;;;;8.57;7.33;;;4.90;99.90;;;;;;5126222;28;20463;-61
2021/10/08 03:51:26;;;;;;;10.70;7.67;;;4.80;99.90;;;;;;5117004;28;20452;-59
2021/10/08 03:53:55;;;;;;;11.40;7.40;;;4.90;99.90;;;;;;5117222;28;20801;-61
2021/10/08 03:56:23;;;;;;;11.40;7.13;;;4.90;99.90;;;;;;5132085;28;20468;-60
2021/10/08 03:58:50;;;;;;;11.27;7.93;;;4.80;99.90;;;;;;5137591;28;20458;-61
2021/10/08 04:01:17;;;;;;;11.43;8.10;;;4.80;99.90;;;;;;5137817;28;20505;-59
2021/10/08 04:03:44;;;;;;;12.10;7.83;;;4.80;99.90;;;;;;5137452;28;20881;-59
2021/10/08 04:06:14;;;;;;;17.20;8.03;;;4.70;99.90;;;;;;5137332;28;20830;-61
2021/10/08 04:08:41;;;;;;;9.77;7.70;;;4.70;99.90;;;;;;5137378;28;20468;-61
2021/10/08 04:11:10;;;;;;;10.17;7.43;;;4.60;99.90;;;;;;5137245;28;20498;-60
2021/10/08 04:13:38;;;;;;;13.17;7.27;;;4.60;99.90;;;;;;5136793;28;20915;-61
2021/10/08 04:16:05;;;;;;;11.60;8.20;;;4.60;99.90;;;;;;5137666;28;20465;-61
2021/10/08 04:18:33;;;;;;;10.90;8.07;;;4.60;99.90;;;;;;5137529;28;20497;-61
2021/10/08 04:21:00;;;;;;;10.73;7.20;;;4.60;99.90;;;;;;5137917;28;20469;-61
2021/10/08 04:23:30;;;;;;;11.57;7.97;;;4.50;99.90;;;;;;5138027;28;20938;-61
2021/10/08 04:25:57;;;;;;;13.90;8.27;;;4.50;99.90;;;;;;5137841;28;20494;-61
2021/10/08 04:28:26;;;;;;;10.93;7.43;;;4.60;99.90;;;;;;5139372;27;20504;-61
2021/10/08 04:30:52;;;;;;;11.33;7.93;;;4.70;99.90;;;;;;5141635;27;20486;-61
2021/10/08 04:33:21;;;;;;;10.53;7.30;;;4.70;99.90;;;;;;5141365;27;20545;-61
2021/10/08 04:35:49;;;;;;;9.00;8.10;;;4.70;99.90;;;;;;5141046;27;20905;-61
2021/10/08 04:38:16;;;;;;;12.37;8.10;;;4.70;99.90;;;;;;5141343;27;20476;-61
2021/10/08 04:40:43;;;;;;;9.63;7.77;;;4.70;99.90;;;;;;5141030;27;20545;-61
2021/10/08 04:43:11;;;;;;;10.80;8.20;;;4.70;99.90;;;;;;5141155;27;20461;-61
2021/10/08 04:45:39;;;;;;;9.77;8.20;;;4.70;99.90;;;;;;5140894;27;20495;-62
2021/10/08 04:48:07;;;;;;;11.90;8.37;;;4.70;99.90;;;;;;5140711;27;20514;-62
2021/10/08 04:50:34;;;;;;;11.13;7.83;;;4.70;99.90;;;;;;5140667;27;20817;-62
2021/10/08 04:53:11;;;;;;;14.10;8.40;;;4.70;99.90;;;;;;5140970;27;20496;-62
2021/10/08 04:55:38;;;;;;;11.77;8.40;;;4.70;99.90;;;;;;5140513;27;20804;-62
2021/10/08 04:58:05;;;;;;;10.33;7.83;;;4.60;99.90;;;;;;5140645;27;20490;-62
2021/10/08 05:00:32;;;;;;;12.90;7.80;;;4.60;99.90;;;;;;5140525;27;20519;-62
2021/10/08 05:03:00;;;;;;;12.47;9.23;;;4.70;99.90;;;;;;5140742;27;20700;-62
2021/10/08 05:05:27;;;;;;;15.20;8.00;;;4.70;99.90;;;;;;5140370;27;20535;-62
2021/10/08 05:07:54;;;;;;;13.10;8.90;;;4.70;99.90;;;;;;5140494;27;20463;-62
2021/10/08 05:10:22;;;;;;;10.47;7.93;;;4.60;99.90;;;;;;5140412;27;20433;-62
2021/10/08 05:12:49;;;;;;;22.37;16.70;;;4.60;99.90;;;;;;5140456;27;20462;-62
2021/10/08 05:15:16;;;;;;;19.90;15.63;;;4.60;99.90;;;;;;5140366;27;20494;-62
2021/10/08 05:17:43;;;;;;;12.20;9.90;;;4.60;99.90;;;;;;5140123;27;20480;-62
2021/10/08 05:20:13;;;;;;;20.10;9.70;;;4.50;99.90;;;;;;5140555;27;20526;-62
2021/10/08 05:22:40;;;;;;;11.77;8.63;;;4.50;99.90;;;;;;5140284;27;20560;-62
2021/10/08 05:25:10;;;;;;;10.60;8.60;;;4.50;99.90;;;;;;5140204;27;20486;-62
2021/10/08 05:27:39;;;;;;;10.40;8.07;;;4.50;99.90;;;;;;5139919;27;20549;-62
2021/10/08 05:30:07;;;;;;;11.50;8.70;;;4.50;99.90;;;;;;5140096;27;20435;-62
2021/10/08 05:32:34;;;;;;;12.87;8.67;;;4.60;99.90;;;;;;5139997;27;20533;-62
2021/10/08 05:35:01;;;;;;;12.13;9.10;;;4.60;99.90;;;;;;5140090;27;20438;-62
2021/10/08 05:37:30;;;;;;;12.97;8.83;;;4.60;99.90;;;;;;5138524;27;20548;-62
2021/10/08 05:39:57;;;;;;;11.30;9.10;;;4.60;99.90;;;;;;5138658;27;20469;-63
2021/10/08 05:42:24;;;;;;;9.00;7.23;;;4.50;99.90;;;;;;5138939;27;20851;-63
2021/10/08 05:44:51;;;;;;;10.17;7.20;;;4.50;99.90;;;;;;5139583;27;20459;-63
2021/10/08 05:47:18;;;;;;;8.30;7.17;;;4.60;99.90;;;;;;5138305;27;20446;-63
2021/10/08 05:49:45;;;;;;;12.43;7.83;;;4.50;99.90;;;;;;5118746;28;20444;-63
2021/10/08 05:52:12;;;;;;;10.03;7.40;;;4.60;99.90;;;;;;5118902;28;20473;-63
2021/10/08 05:54:41;;;;;;;9.07;7.00;;;4.50;99.90;;;;;;5119233;28;20818;-63
2021/10/08 05:57:08;;;;;;;12.17;8.60;;;4.50;99.90;;;;;;5119626;28;20434;-63
2021/10/08 05:59:39;;;;;;;11.30;8.70;;;4.60;99.90;;;;;;5118794;28;20512;-64
2021/10/08 06:02:06;;;;;;;10.13;8.07;;;4.60;99.90;;;;;;5118772;28;20466;-63
2021/10/08 06:04:34;;;;;;;9.90;8.43;;;4.60;99.90;;;;;;5118548;28;20965;-61
2021/10/08 06:07:03;;;;;;;9.97;8.53;;;4.60;99.90;;;;;;5118471;28;20508;-61
2021/10/08 06:09:33;;;;;;;9.73;8.20;;;4.60;99.90;;;;;;5118303;28;21008;-61
2021/10/08 06:12:04;;;;;;;13.57;8.77;;;4.60;99.90;;;;;;5117345;28;20503;-61
2021/10/08 06:14:31;;;;;;;11.00;9.20;;;4.70;99.90;;;;;;5118655;28;20565;-61
2021/10/08 06:17:01;;;;;;;11.27;7.30;;;4.80;99.90;;;;;;5119041;28;20809;-61
2021/10/08 06:19:28;;;;;;;13.77;8.43;;;4.80;99.90;;;;;;5118980;28;20512;-61
2021/10/08 06:21:58;;;;;;;16.37;8.33;;;4.80;99.90;;;;;;5118076;28;20870;-61
2021/10/08 06:24:25;;;;;;;10.67;7.97;;;4.90;99.90;;;;;;5118364;28;20467;-61
2021/10/08 06:26:52;;;;;;;16.37;9.73;;;4.90;99.90;;;;;;5118014;28;20466;-61
2021/10/08 06:29:23;;;;;;;13.10;9.57;;;5.00;99.90;;;;;;5118417;28;20479;-61
2021/10/08 06:31:50;;;;;;;10.90;7.03;;;5.10;99.90;;;;;;5118222;28;20506;-60
2021/10/08 06:34:17;;;;;;;10.07;7.13;;;5.20;99.90;;;;;;5118093;28;20434;-61
2021/10/08 06:36:43;;;;;;;10.60;8.27;;;5.10;99.90;;;;;;5118321;28;20499;-61
2021/10/08 06:39:10;;;;;;;11.37;8.07;;;5.20;99.90;;;;;;5118313;28;20467;-61
2021/10/08 06:41:38;;;;;;;10.63;7.10;;;5.30;99.90;;;;;;5117483;28;20541;-61
2021/10/08 06:44:08;;;;;;;10.70;9.43;;;5.40;99.90;;;;;;5118026;28;20499;-61
2021/10/08 06:46:36;;;;;;;13.17;9.47;;;5.50;99.90;;;;;;5118049;28;20470;-61
2021/10/08 06:49:08;;;;;;;12.37;9.00;;;5.60;99.90;;;;;;5117328;28;20430;-60
2021/10/08 06:51:34;;;;;;;15.57;8.80;;;5.70;99.90;;;;;;5116700;28;20457;-60
2021/10/08 06:54:04;;;;;;;18.67;9.90;;;5.90;99.90;;;;;;5118067;28;20467;-61
2021/10/08 06:56:34;;;;;;;12.50;9.97;;;6.20;99.90;;;;;;5118313;28;20441;-61
2021/10/08 06:59:01;;;;;;;15.50;10.00;;;6.40;99.90;;;;;;5118252;28;20442;-61
2021/10/08 07:01:28;;;;;;;23.10;11.57;;;6.60;99.90;;;;;;5116433;28;20517;-60
2021/10/08 07:03:56;;;;;;;13.60;10.60;;;6.90;99.90;;;;;;5119078;27;20460;-60
2021/10/08 07:06:23;;;;;;;14.27;10.80;;;7.10;99.90;;;;;;5136761;27;20515;-61
2021/10/08 07:08:53;;;;;;;17.43;12.07;;;7.30;99.90;;;;;;5137561;27;20897;-61
2021/10/08 07:11:20;;;;;;;18.20;12.60;;;7.60;99.90;;;;;;5137375;27;20495;-61
2021/10/08 07:13:49;;;;;;;17.67;12.83;;;7.80;99.90;;;;;;5137171;27;20828;-61
2021/10/08 07:16:16;;;;;;;18.73;12.50;;;8.00;99.90;;;;;;5138023;27;20924;-61
2021/10/08 07:18:49;;;;;;;16.13;12.57;;;8.30;99.90;;;;;;5138289;27;20437;-60
2021/10/08 07:21:20;;;;;;;14.37;11.60;;;8.40;99.90;;;;;;5138221;27;20523;-60
2021/10/08 07:23:49;;;;;;;14.50;10.40;;;8.60;99.90;;;;;;5137873;27;20920;-60
2021/10/08 07:26:18;;;;;;;14.97;8.70;;;8.80;99.90;;;;;;5138161;28;20443;-60
2021/10/08 07:28:45;;;;;;;11.10;7.90;;;9.00;99.90;;;;;;5137989;28;20494;-59
2021/10/08 07:31:12;;;;;;;13.23;9.40;;;9.20;99.90;;;;;;5138011;28;20469;-59
2021/10/08 07:33:42;;;;;;;12.60;8.67;;;9.30;99.90;;;;;;5137747;28;20437;-59
2021/10/08 07:36:09;;;;;;;11.30;8.50;;;9.80;99.90;;;;;;5137185;28;20431;-59
2021/10/08 07:38:40;;;;;;;10.53;8.57;;;10.10;99.90;;;;;;5138014;28;20525;-60
2021/10/08 07:41:09;;;;;;;11.13;8.77;;;10.30;99.90;;;;;;5138384;28;20498;-60
2021/10/08 07:43:37;;;;;;;11.03;8.57;;;10.60;99.90;;;;;;5137688;28;20554;-59
2021/10/08 07:46:04;;;;;;;9.33;7.57;;;10.90;99.90;;;;;;5137754;28;20462;-59
2021/10/08 07:48:31;;;;;;;11.80;9.97;;;11.00;99.90;;;;;;5137688;28;20497;-59
2021/10/08 07:51:02;;;;;;;13.87;11.33;;;11.20;99.90;;;;;;5138050;28;20439;-57
2021/10/08 07:53:38;;;;;;;16.70;11.83;;;11.40;99.90;;;;;;5138105;28;20522;-59
2021/10/08 07:56:10;;;;;;;12.87;9.77;;;11.70;99.90;;;;;;5137685;28;20465;-59
2021/10/08 07:58:37;;;;;;;19.50;11.77;;;11.80;99.90;;;;;;5137807;28;20734;-57
2021/10/08 08:01:07;;;;;;;10.07;7.90;;;12.20;99.90;;;;;;5138026;28;20529;-56
2021/10/08 08:03:36;;;;;;;16.67;11.10;;;12.30;99.90;;;;;;5140342;27;20490;-58
2021/10/08 08:06:03;;;;;;;12.30;9.33;;;12.60;99.90;;;;;;5138420;27;20452;-55
2021/10/08 08:08:31;;;;;;;17.60;9.87;;;12.80;99.90;;;;;;5141502;27;20494;-56
2021/10/08 08:10:58;;;;;;;15.03;12.47;;;12.90;99.90;;;;;;5141619;27;20901;-59
2021/10/08 08:13:29;;;;;;;12.50;9.73;;;13.20;99.90;;;;;;5141812;27;20561;-57
2021/10/08 08:15:56;;;;;;;14.17;10.37;;;13.40;99.90;;;;;;5141156;27;20804;-59
2021/10/08 08:18:23;;;;;;;15.00;11.73;;;13.70;99.90;;;;;;5141081;27;20893;-58
2021/10/08 08:20:50;;;;;;;12.50;11.00;;;13.90;78.90;;;;;;5140526;27;20489;-59
2021/10/08 08:23:18;;;;;;;15.90;11.30;;;14.20;99.90;;;;;;5141015;27;20541;-57
2021/10/08 08:25:45;;;;;;;14.10;9.50;;;14.40;1.00;;;;;;5140917;27;20497;-55
2021/10/08 08:28:12;;;;;;;12.57;9.57;;;14.60;1.00;;;;;;5140946;27;20515;-55
2021/10/08 08:30:41;;;;;;;9.43;8.43;;;14.80;1.00;;;;;;5141181;27;20527;-57
2021/10/08 08:33:08;;;;;;;10.17;9.17;;;14.80;1.00;;;;;;5141214;27;20790;-57
2021/10/08 08:35:35;;;;;;;11.40;9.63;;;15.10;1.00;;;;;;5140665;27;20454;-58
2021/10/08 08:38:05;;;;;;;13.50;8.80;;;15.70;1.00;;;;;;5140661;27;20459;-59
2021/10/08 08:40:35;;;;;;;12.03;9.60;;;16.20;1.00;;;;;;5141068;27;20498;-57
2021/10/08 08:43:03;;;;;;;13.00;8.97;;;16.50;1.00;;;;;;5140964;27;20486;-56
2021/10/08 08:45:31;;;;;;;13.20;10.23;;;16.60;1.00;;;;;;5139873;27;20489;-58
2021/10/08 08:48:02;;;;;;;14.40;10.40;;;16.90;1.00;;;;;;5133675;27;20560;-58
2021/10/08 08:50:30;;;;;;;11.70;9.20;;;17.40;1.00;;;;;;5120060;28;20512;-58
2021/10/08 08:53:00;;;;;;;10.17;9.10;;;17.60;1.00;;;;;;5132432;27;20456;-56
2021/10/08 08:55:27;;;;;;;9.50;8.60;;;18.00;1.00;;;;;;5140536;27;20495;-57
2021/10/08 08:57:54;;;;;;;9.43;8.50;;;18.20;1.00;;;;;;5140482;27;20458;-53
2021/10/08 09:00:22;;;;;;;14.40;8.10;;;18.30;1.00;;;;;;5140805;27;20459;-56
2021/10/08 09:02:57;;;;;;;9.30;7.80;;;18.60;1.00;;;;;;5140841;27;20490;-55
2021/10/08 09:05:32;;;;;;;7.67;6.77;;;18.20;1.00;;;;;;5139620;27;20992;-58
2021/10/08 09:08:04;;;;;;;6.13;5.50;;;17.60;1.00;;;;;;5139797;27;20458;-51
2021/10/08 09:10:37;;;;;;;5.30;4.87;;;17.20;1.00;;;;;;5140229;27;20457;-55
2021/10/08 09:13:06;;;;;;;5.20;4.80;;;17.20;1.00;;;;;;5140782;27;20459;-52
2021/10/08 09:15:47;;;;;;;5.80;5.23;;;17.50;1.00;;;;;;5139923;27;20511;-52
2021/10/08 09:18:15;;;;;;;5.43;4.17;;;17.90;1.00;;;;;;5140486;27;20498;-52
2021/10/08 09:21:04;;;;;;;3.70;3.40;;;18.30;1.00;;;;;;5139838;27;20502;-53
2021/10/08 09:23:35;;;;;;;4.87;4.37;;;18.30;1.00;;;;;;5140260;27;20731;-54
2021/10/08 09:26:05;;;;;;;4.53;4.13;;;18.20;1.00;;;;;;5139892;27;20839;-49
2021/10/08 09:28:32;;;;;;;4.97;4.47;;;18.10;1.00;;;;;;5139471;27;20455;-51
2021/10/08 09:31:05;;;;;;;5.30;3.90;;;18.00;1.00;;;;;;5139925;27;20490;-50
2021/10/08 09:33:35;;;;;;;4.90;4.40;;;17.70;1.00;;;;;;5135715;27;20451;-51
2021/10/08 09:36:14;;;;;;;4.47;4.13;;;17.60;1.00;;;;;;5139293;27;20912;-48
2021/10/08 09:38:45;;;;;;;4.53;3.90;;;18.10;1.00;;;;;;5140012;27;20527;-51
2021/10/08 09:41:12;;;;;;;4.63;4.33;;;18.50;1.00;;;;;;5140080;27;20490;-53
2021/10/08 09:43:42;;;;;;;5.00;4.43;;;18.70;1.00;;;;;;5140173;27;20915;-48
2021/10/08 09:46:21;;;;;;;5.77;5.20;;;19.20;1.00;;;;;;5140054;27;20465;-50
2021/10/08 09:48:50;;;;;;;3.80;3.50;;;19.70;1.00;;;;;;5139688;27;20527;-55
2021/10/08 09:51:29;;;;;;;3.53;3.23;;;19.90;1.00;;;;;;5139871;27;20459;-58
2021/10/08 09:54:00;;;;;;;5.13;3.83;;;19.80;1.00;;;;;;5139585;27;20488;-53
2021/10/08 09:56:33;;;;;;;4.43;3.90;;;19.90;1.00;;;;;;5139896;27;20527;-54
2021/10/08 09:59:01;;;;;;;4.73;3.80;;;19.90;1.00;;;;;;5139650;27;20760;-56
2021/10/08 10:01:33;;;;;;;5.17;3.80;;;20.10;1.00;;;;;;5139819;27;20508;-54
2021/10/08 10:04:01;;;;;;;4.43;4.03;;;19.80;1.00;;;;;;5139277;27;20506;-54
2021/10/08 10:06:30;;;;;;;3.70;3.40;;;20.00;1.00;;;;;;5139115;27;20470;-53
2021/10/08 10:08:57;;;;;;;6.23;4.07;;;20.00;1.00;;;;;;5139344;27;20430;-51
2021/10/08 10:11:27;;;;;;;5.07;4.60;;;20.20;1.00;;;;;;5139627;27;20458;-52
2021/10/08 10:13:57;;;;;;;5.13;4.50;;;20.30;1.00;;;;;;5139097;27;20459;-53
2021/10/08 10:16:26;;;;;;;7.10;4.30;;;20.20;1.00;;;;;;5139815;27;20460;-51
2021/10/08 10:18:55;;;;;;;4.70;4.30;;;20.00;99.90;;;;;;5138961;27;20467;-51
2021/10/08 10:21:23;;;;;;;5.03;4.63;;;20.40;1.00;;;;;;5138119;27;20554;-52
2021/10/08 10:23:54;;;;;;;5.07;4.57;;;19.60;99.90;;;;;;5136752;27;20838;-57
2021/10/08 10:26:21;;;;;;;6.00;5.33;;;20.20;1.00;;;;;;5137483;27;20538;-49
2021/10/08 10:28:49;;;;;;;5.23;4.83;;;20.40;99.90;;;;;;5137255;27;20867;-49
2021/10/08 10:31:19;;;;;;;6.30;5.13;;;20.40;1.00;;;;;;5138240;27;20458;-48
2021/10/08 10:33:46;;;;;;;6.13;5.60;;;20.50;99.90;;;;;;5138305;27;20467;-48
2021/10/08 10:36:22;;;;;;;5.23;4.80;;;20.70;1.00;;;;;;5138600;27;20495;-49
2021/10/08 10:38:48;;;;;;;5.63;5.10;;;20.20;99.90;;;;;;5138164;27;20553;-48
2021/10/08 10:41:26;;;;;;;6.93;4.57;;;20.30;99.90;;;;;;5138332;27;20734;-48
2021/10/08 10:43:56;;;;;;;5.10;4.60;;;20.70;99.90;;;;;;5138097;27;20469;-52
2021/10/08 10:46:43;;;;;;;6.33;4.37;;;21.20;99.90;;;;;;5138599;27;20519;-53
2021/10/08 10:49:33;;;;;;;4.63;4.23;;;21.30;99.90;;;;;;5138060;27;20459;-50
2021/10/08 10:52:15;;;;;;;4.50;4.20;;;21.10;99.90;;;;;;5138274;27;20455;-52
2021/10/08 10:55:03;;;;;;;4.53;4.13;;;21.40;99.90;;;;;;5138498;27;20458;-51
2021/10/08 10:58:03;;;;;;;5.90;5.40;;;21.40;99.90;;;;;;5138884;27;20545;-51
2021/10/08 11:00:48;;;;;;;6.30;5.70;;;20.90;99.90;;;;;;5138706;27;20454;-51
2021/10/08 11:03:33;;;;;;;6.83;5.27;;;20.70;99.90;;;;;;5138471;27;20931;-51
2021/10/08 11:06:13;;;;;;;6.87;6.17;;;21.10;99.90;;;;;;5136715;27;20493;-51
2021/10/08 11:09:23;;;;;;;5.47;4.97;;;21.20;99.90;;;;;;5134043;27;20797;-56
2021/10/08 11:12:28;;;;;;;5.30;4.80;;;21.50;99.90;;;;;;5136860;27;20470;-56
2021/10/08 11:15:42;;;;;;;6.00;4.43;;;21.50;99.90;;;;;;5138418;27;20462;-48
2021/10/08 11:18:09;;;;;;;5.57;4.87;;;21.50;99.90;;;;;;5130186;27;20754;-53
2021/10/08 11:20:46;;;;;;;5.13;4.60;;;21.70;99.90;;;;;;5138269;27;20810;-55
2021/10/08 11:23:25;;;;;;;5.40;5.00;;;21.30;99.90;;;;;;5138260;27;20648;-55
2021/10/08 11:25:58;;;;;;;5.37;4.27;;;21.10;99.90;;;;;;5137649;27;20515;-49
2021/10/08 11:28:33;;;;;;;6.03;5.03;;;21.10;99.90;;;;;;5137898;28;20893;-52
2021/10/08 11:31:05;;;;;;;4.43;4.00;;;21.20;99.90;;;;;;5137740;28;20483;-57
2021/10/08 11:33:39;;;;;;;4.80;4.40;;;21.30;99.90;;;;;;5137196;28;20461;-55
2021/10/08 11:36:21;;;;;;;4.40;4.00;;;21.50;99.90;;;;;;5137686;28;20462;-53
2021/10/08 11:38:52;;;;;;;5.40;4.90;;;21.30;99.90;;;;;;5140372;27;20522;-52
2021/10/08 11:41:21;;;;;;;4.93;4.53;;;21.10;99.90;;;;;;5122111;28;20746;-55
2021/10/08 11:43:56;;;;;;;4.93;4.40;;;21.00;99.90;;;;;;5120481;28;20498;-52
2021/10/08 11:46:33;;;;;;;6.70;4.80;;;21.20;99.90;;;;;;5140188;27;20462;-57
2021/10/08 11:49:04;;;;;;;4.50;4.10;;;21.30;99.90;;;;;;5141748;27;20424;-54
2021/10/08 11:51:31;;;;;;;4.77;4.37;;;21.50;99.90;;;;;;5142226;27;20433;-54
2021/10/08 11:54:03;;;;;;;4.73;4.20;;;21.20;99.90;;;;;;5141573;27;20482;-51
2021/10/08 11:56:33;;;;;;;4.83;4.53;;;20.70;99.90;;;;;;5141931;27;20468;-56
2021/10/08 11:59:10;;;;;;;5.23;3.97;;;21.00;99.90;;;;;;5141170;27;20503;-53
2021/10/08 12:01:40;;;;;;;3.93;3.60;;;20.30;99.90;;;;;;5141630;27;20465;-55
2021/10/08 12:04:08;;;;;;;5.83;4.47;;;20.30;99.90;;;;;;5141028;27;20554;-51
2021/10/08 12:06:35;;;;;;;5.20;4.80;;;20.30;99.90;;;;;;5140303;27;20493;-58
2021/10/08 12:09:05;;;;;;;5.07;4.00;;;20.40;99.90;;;;;;5140280;27;20756;-58
2021/10/08 12:11:33;;;;;;;4.63;4.23;;;20.70;99.90;;;;;;5140294;27;20511;-56
2021/10/08 12:14:04;;;;;;;5.40;4.07;;;20.90;99.90;;;;;;5139710;27;20450;-51
2021/10/08 12:16:40;;;;;;;5.97;4.57;;;21.30;99.90;;;;;;5139866;27;20451;-57
2021/10/08 12:19:09;;;;;;;4.70;4.30;;;21.80;99.90;;;;;;5139198;27;20873;-54
2021/10/08 12:21:38;;;;;;;4.07;3.67;;;21.60;99.90;;;;;;5137692;27;20574;-56
2021/10/08 12:24:08;;;;;;;4.77;4.37;;;21.80;99.90;;;;;;5139697;27;20768;-58
2021/10/08 12:26:39;;;;;;;7.13;5.60;;;22.20;99.90;;;;;;5137102;27;20554;-57
2021/10/08 12:29:11;;;;;;;8.40;4.20;;;22.40;99.90;;;;;;5138117;27;20927;-56
2021/10/08 12:31:54;;;;;;;4.77;4.10;;;22.10;99.90;;;;;;5137109;27;20485;-54
2021/10/08 12:34:35;;;;;;;6.00;3.70;;;22.20;99.90;;;;;;5137843;27;20889;-54
2021/10/08 12:37:03;;;;;;;3.87;3.57;;;22.20;99.90;;;;;;5138177;27;20515;-54
2021/10/08 12:39:33;;;;;;;6.20;4.43;;;21.90;99.90;;;;;;5139576;27;20509;-56
2021/10/08 12:42:16;;;;;;;5.90;4.50;;;21.90;99.90;;;;;;5139307;27;20454;-57
2021/10/08 12:44:49;;;;;;;4.70;3.70;;;21.90;99.90;;;;;;5138205;27;20906;-57
2021/10/08 12:47:23;;;;;;;5.87;3.67;;;21.60;99.90;;;;;;5136564;27;20475;-56
2021/10/08 12:49:52;;;;;;;4.00;3.60;;;21.90;99.90;;;;;;5124478;27;20463;-58
2021/10/08 12:52:33;;;;;;;3.60;3.13;;;22.30;99.90;;;;;;5124158;27;20452;-56
2021/10/08 12:55:09;;;;;;;4.13;3.80;;;22.60;99.90;;;;;;5138906;27;20779;-54
2021/10/08 12:57:36;;;;;;;4.40;4.00;;;22.80;99.90;;;;;;5134106;27;20560;-57
2021/10/08 13:00:05;;;;;;;4.93;4.47;;;22.90;99.90;;;;;;5140228;27;20462;-56
2021/10/08 13:02:48;;;;;;;5.00;4.20;;;22.60;99.90;;;;;;5128150;27;20575;-53